Time;durP1;ratioP1;P1;durP2;ratioP2;P2;SDS_P1;SDS_P2;PMS_P1;PMS_P2;Temp;Humidity;BMP_temperature;BMP_pressure;BME280_temperature;BME280_humidity;BME280_pressure;Samples;Min_cycle;Max_cycle;Signal;HPM_P1;HPM_P2
2023/04/14 00:00:53;;;;;;;1.40;0.97;;;21.80;64.40;;;;;;5013643;28;20842;-57
2023/04/14 00:03:20;;;;;;;2.38;1.48;;;21.80;64.50;;;;;;5014678;28;20463;-56
2023/04/14 00:05:47;;;;;;;1.30;1.20;;;21.80;64.40;;;;;;5014032;28;20212;-55
2023/04/14 00:08:13;;;;;;;2.60;1.30;;;21.80;64.40;;;;;;5020653;28;20246;-53
2023/04/14 00:10:41;;;;;;;3.95;1.42;;;21.80;64.40;;;;;;5021088;28;20200;-51
2023/04/14 00:13:08;;;;;;;1.58;1.10;;;21.80;64.40;;;;;;5012843;28;20696;-51
2023/04/14 00:15:35;;;;;;;1.38;1.00;;;21.80;64.50;;;;;;5009925;28;20197;-56
2023/04/14 00:18:01;;;;;;;1.45;1.25;;;21.80;64.40;;;;;;5023845;28;20195;-57
2023/04/14 00:20:28;;;;;;;5.03;1.10;;;21.80;64.50;;;;;;5015981;28;20679;-51
2023/04/14 00:22:55;;;;;;;1.67;1.10;;;21.80;64.50;;;;;;5021981;28;20243;-50
2023/04/14 00:25:21;;;;;;;1.85;0.90;;;21.70;64.40;;;;;;5009528;28;20287;-55
2023/04/14 00:27:49;;;;;;;2.60;1.13;;;21.70;64.40;;;;;;5022123;28;20208;-51
2023/04/14 00:30:16;;;;;;;1.45;1.17;;;21.70;64.40;;;;;;5009290;28;20204;-54
2023/04/14 00:32:43;;;;;;;1.52;1.30;;;21.70;64.40;;;;;;5013845;28;20220;-50
2023/04/14 00:35:10;;;;;;;1.75;1.23;;;21.70;64.40;;;;;;5020295;28;20204;-54
2023/04/14 00:37:36;;;;;;;1.17;1.00;;;21.60;64.30;;;;;;5014577;28;20207;-57
2023/04/14 00:40:03;;;;;;;1.58;1.08;;;21.60;64.30;;;;;;5015755;28;20204;-55
2023/04/14 00:42:30;;;;;;;1.25;1.15;;;21.60;64.30;;;;;;5023428;28;20216;-52
2023/04/14 00:44:59;;;;;;;1.52;1.35;;;21.60;64.40;;;;;;5020022;28;20301;-59
2023/04/14 00:47:26;;;;;;;2.30;1.10;;;21.60;64.40;;;;;;5016840;28;20214;-56
2023/04/14 00:49:53;;;;;;;4.22;1.10;;;21.60;64.40;;;;;;5016796;28;20207;-53
2023/04/14 00:52:23;;;;;;;1.60;1.50;;;21.60;64.40;;;;;;5012977;28;20668;-54
2023/04/14 00:54:50;;;;;;;1.70;1.20;;;21.60;64.40;;;;;;5016433;28;20224;-57
2023/04/14 00:57:17;;;;;;;1.48;1.10;;;21.60;64.40;;;;;;5009190;28;20201;-57
2023/04/14 00:59:44;;;;;;;2.10;1.20;;;21.60;64.40;;;;;;5010705;28;20196;-56
2023/04/14 01:02:12;;;;;;;3.00;1.13;;;21.50;64.30;;;;;;5005212;28;20199;-55
2023/04/14 01:04:39;;;;;;;1.17;1.00;;;21.50;64.40;;;;;;5017835;28;20287;-52
2023/04/14 01:07:06;;;;;;;2.85;1.40;;;21.50;64.40;;;;;;5009371;28;20552;-56
2023/04/14 01:09:33;;;;;;;2.53;1.42;;;21.50;64.40;;;;;;5017387;28;20196;-55
2023/04/14 01:12:13;;;;;;;2.13;1.35;;;21.50;64.40;;;;;;5017674;28;20535;-51
2023/04/14 01:14:44;;;;;;;1.75;1.08;;;21.40;64.30;;;;;;5014158;28;20286;-53
2023/04/14 01:17:19;;;;;;;1.40;1.10;;;21.40;64.30;;;;;;5015065;28;20251;-52
2023/04/14 01:20:05;;;;;;;1.20;0.80;;;21.40;64.40;;;;;;5014749;28;20204;-55
2023/04/14 01:22:36;;;;;;;3.50;1.10;;;21.40;64.40;;;;;;5015549;28;20223;-53
2023/04/14 01:25:47;;;;;;;1.27;1.05;;;21.40;64.50;;;;;;5017381;28;20204;-53
2023/04/14 01:28:34;;;;;;;2.70;1.00;;;21.40;64.60;;;;;;4970688;28;20201;-53
2023/04/14 01:31:16;;;;;;;1.30;1.00;;;21.40;64.50;;;;;;5010594;28;20228;-52
2023/04/14 01:33:45;;;;;;;1.40;1.25;;;21.40;64.50;;;;;;5017024;28;20219;-52
2023/04/14 01:36:19;;;;;;;1.20;1.00;;;21.40;64.50;;;;;;5017096;28;20204;-54
2023/04/14 01:38:48;;;;;;;1.35;1.10;;;21.30;64.40;;;;;;5014310;28;20196;-53
2023/04/14 01:41:17;;;;;;;1.55;1.30;;;21.30;64.50;;;;;;5020625;28;20196;-54
2023/04/14 01:43:49;;;;;;;1.30;1.10;;;21.30;64.50;;;;;;5013649;28;20232;-51
2023/04/14 01:46:18;;;;;;;1.52;1.42;;;21.30;64.50;;;;;;5010460;28;20200;-55
2023/04/14 01:48:45;;;;;;;1.10;0.93;;;21.30;64.60;;;;;;5012470;28;20259;-53
2023/04/14 01:51:17;;;;;;;1.50;1.13;;;21.30;64.60;;;;;;5013857;28;20244;-60
2023/04/14 01:53:45;;;;;;;1.40;1.10;;;21.30;64.60;;;;;;5018366;28;20267;-50
2023/04/14 01:56:14;;;;;;;1.52;1.30;;;21.20;64.50;;;;;;5020170;28;20295;-53
2023/04/14 01:58:42;;;;;;;1.42;1.10;;;21.20;64.50;;;;;;5013160;28;20239;-51
2023/04/14 02:01:09;;;;;;;1.52;1.30;;;21.30;64.60;;;;;;5018065;28;20200;-53
2023/04/14 02:03:39;;;;;;;1.30;1.08;;;21.30;64.70;;;;;;5018535;28;20196;-51
2023/04/14 02:06:07;;;;;;;1.30;1.10;;;21.30;64.70;;;;;;5016567;28;20200;-54
2023/04/14 02:08:36;;;;;;;1.80;1.20;;;21.20;64.60;;;;;;5019034;28;20656;-52
2023/04/14 02:11:05;;;;;;;1.40;1.20;;;21.20;64.60;;;;;;5014056;28;20200;-55
2023/04/14 02:13:32;;;;;;;2.55;1.60;;;21.20;64.60;;;;;;5011458;28;20705;-56
2023/04/14 02:16:01;;;;;;;1.30;1.00;;;21.20;64.60;;;;;;5015555;28;20197;-54
2023/04/14 02:18:30;;;;;;;1.20;1.10;;;21.20;64.60;;;;;;5013713;28;20215;-52
2023/04/14 02:21:01;;;;;;;2.40;1.10;;;21.20;64.60;;;;;;5020601;28;20610;-57
2023/04/14 02:23:28;;;;;;;1.50;1.20;;;21.10;64.60;;;;;;5014731;28;20217;-57
2023/04/14 02:26:00;;;;;;;1.15;0.90;;;21.10;64.60;;;;;;5010807;28;20235;-56
2023/04/14 02:28:31;;;;;;;1.40;1.20;;;21.10;64.60;;;;;;5020930;28;20258;-53
2023/04/14 02:31:01;;;;;;;3.63;1.85;;;21.10;64.60;;;;;;5010081;28;20196;-54
2023/04/14 02:33:31;;;;;;;1.30;1.00;;;21.10;64.60;;;;;;5008884;28;20212;-54
2023/04/14 02:36:04;;;;;;;1.00;0.90;;;21.10;64.60;;;;;;5014963;28;20200;-58
2023/04/14 02:38:36;;;;;;;1.50;1.40;;;21.10;64.70;;;;;;5012885;28;20204;-53
2023/04/14 02:41:08;;;;;;;1.20;0.95;;;21.10;64.70;;;;;;5012868;28;20259;-56
2023/04/14 02:43:42;;;;;;;2.08;1.27;;;21.10;64.60;;;;;;5015658;28;20215;-54
2023/04/14 02:46:11;;;;;;;1.10;0.80;;;21.10;64.70;;;;;;5011478;28;20194;-53
2023/04/14 02:48:41;;;;;;;1.73;1.23;;;21.10;64.70;;;;;;5020907;28;20203;-51
2023/04/14 02:51:11;;;;;;;1.25;1.10;;;21.10;64.80;;;;;;5006606;28;20209;-56
2023/04/14 02:53:38;;;;;;;1.25;1.15;;;21.10;64.70;;;;;;5013548;28;20236;-55
2023/04/14 02:56:05;;;;;;;1.60;1.50;;;21.00;64.60;;;;;;5011065;28;20197;-53
2023/04/14 02:58:32;;;;;;;1.63;1.40;;;21.00;64.60;;;;;;5006051;28;20623;-54
2023/04/14 03:01:00;;;;;;;2.22;1.42;;;21.00;64.60;;;;;;5010135;28;20196;-54
2023/04/14 03:03:27;;;;;;;0.90;0.80;;;21.00;64.60;;;;;;5017623;28;20197;-54
2023/04/14 03:05:55;;;;;;;1.85;1.20;;;21.00;64.70;;;;;;5012297;28;20614;-57
2023/04/14 03:08:24;;;;;;;1.52;1.23;;;21.00;64.70;;;;;;5008939;28;20201;-54
2023/04/14 03:10:52;;;;;;;1.45;1.20;;;21.00;64.80;;;;;;5014542;28;20251;-52
2023/04/14 03:13:22;;;;;;;1.40;1.15;;;21.00;64.80;;;;;;5021803;28;20225;-56
2023/04/14 03:15:51;;;;;;;1.65;1.10;;;21.00;64.70;;;;;;5013960;28;20596;-55
2023/04/14 03:18:20;;;;;;;1.40;1.15;;;21.00;64.80;;;;;;5021262;28;20204;-51
2023/04/14 03:20:49;;;;;;;1.52;1.00;;;21.00;64.80;;;;;;5009645;28;20255;-55
2023/04/14 03:23:19;;;;;;;1.98;1.13;;;21.00;64.70;;;;;;5022449;28;20220;-56
2023/04/14 03:25:47;;;;;;;1.90;1.30;;;20.90;64.60;;;;;;5023075;28;20200;-56
2023/04/14 03:28:19;;;;;;;1.50;1.00;;;20.90;64.70;;;;;;5017438;28;20606;-53
2023/04/14 03:30:50;;;;;;;2.47;1.40;;;20.90;64.70;;;;;;5014130;28;20199;-57
2023/04/14 03:33:22;;;;;;;1.80;1.00;;;21.00;64.90;;;;;;5016648;28;20200;-57
2023/04/14 03:35:52;;;;;;;1.20;1.08;;;21.00;64.80;;;;;;5024314;28;20200;-55
2023/04/14 03:38:20;;;;;;;1.42;1.33;;;20.90;64.70;;;;;;5010159;28;20715;-60
2023/04/14 03:40:50;;;;;;;2.03;1.30;;;20.90;64.90;;;;;;5015969;28;20308;-52
2023/04/14 03:43:19;;;;;;;1.85;1.30;;;20.90;64.80;;;;;;5016022;28;20207;-57
2023/04/14 03:45:47;;;;;;;1.83;1.17;;;20.90;64.80;;;;;;5011246;28;20197;-57
2023/04/14 03:48:16;;;;;;;1.35;1.02;;;20.90;64.80;;;;;;5020171;28;20680;-58
2023/04/14 03:50:46;;;;;;;1.58;1.13;;;20.90;64.80;;;;;;5009847;28;20207;-56
2023/04/14 03:53:16;;;;;;;1.30;1.15;;;20.90;64.80;;;;;;5017476;28;20208;-53
2023/04/14 03:55:45;;;;;;;1.13;1.02;;;20.90;64.80;;;;;;5023321;28;20196;-56
2023/04/14 03:58:15;;;;;;;1.30;1.00;;;20.90;64.80;;;;;;5013246;28;20641;-57
2023/04/14 04:00:43;;;;;;;1.33;1.23;;;20.90;65.60;;;;;;5015884;28;20205;-54
2023/04/14 04:03:10;;;;;;;1.60;1.00;;;20.90;64.90;;;;;;5013695;28;20711;-55
2023/04/14 04:05:39;;;;;;;1.23;1.00;;;20.90;64.90;;;;;;5017356;28;20201;-54
2023/04/14 04:08:07;;;;;;;1.17;0.90;;;20.80;64.80;;;;;;5013886;28;20196;-56
2023/04/14 04:10:35;;;;;;;1.25;1.15;;;20.80;64.70;;;;;;5006479;28;20197;-54
2023/04/14 04:13:06;;;;;;;1.05;0.90;;;20.80;64.80;;;;;;5016120;28;20661;-55
2023/04/14 04:15:36;;;;;;;1.48;1.13;;;20.80;64.80;;;;;;5018503;28;20228;-55
2023/04/14 04:18:05;;;;;;;1.48;1.30;;;20.80;64.90;;;;;;5000595;28;20211;-57
2023/04/14 04:20:34;;;;;;;1.55;1.45;;;20.80;64.90;;;;;;5013001;28;20201;-56
2023/04/14 04:23:02;;;;;;;1.58;1.20;;;20.80;64.90;;;;;;5013106;28;20893;-53
2023/04/14 04:25:31;;;;;;;1.65;1.38;;;20.80;64.80;;;;;;5011838;28;20637;-52
2023/04/14 04:27:59;;;;;;;1.67;1.20;;;20.80;64.90;;;;;;5017427;28;20201;-57
2023/04/14 04:30:29;;;;;;;1.15;0.90;;;20.80;64.80;;;;;;5012683;28;20203;-56
2023/04/14 04:32:57;;;;;;;1.35;1.13;;;20.80;64.80;;;;;;5017258;28;20259;-58
2023/04/14 04:35:25;;;;;;;1.10;0.90;;;20.80;64.80;;;;;;5013218;28;20893;-60
2023/04/14 04:37:54;;;;;;;1.17;1.00;;;20.80;64.90;;;;;;5003135;28;20258;-56
2023/04/14 04:40:21;;;;;;;1.83;1.60;;;20.80;64.90;;;;;;5007271;28;20203;-55
2023/04/14 04:42:47;;;;;;;1.00;0.90;;;20.80;64.90;;;;;;5010340;28;20216;-57
2023/04/14 04:45:40;;;;;;;2.00;1.27;;;20.80;65.00;;;;;;5009584;28;20205;-60
2023/04/14 04:48:08;;;;;;;1.20;1.00;;;20.80;64.90;;;;;;5011008;28;20203;-54
2023/04/14 04:50:34;;;;;;;1.73;1.20;;;20.80;65.00;;;;;;5014544;28;20719;-60
2023/04/14 04:53:01;;;;;;;1.20;0.98;;;20.80;65.80;;;;;;5017125;28;20188;-52
2023/04/14 04:55:28;;;;;;;1.80;1.15;;;20.80;65.00;;;;;;5012172;28;20830;-56
2023/04/14 04:57:54;;;;;;;1.48;1.10;;;20.70;64.90;;;;;;5012774;28;20551;-58
2023/04/14 05:00:24;;;;;;;1.55;1.30;;;20.70;64.80;;;;;;5013617;28;20269;-53
2023/04/14 05:02:51;;;;;;;1.42;1.30;;;20.70;64.80;;;;;;5027119;28;20266;-54
2023/04/14 05:05:19;;;;;;;1.38;1.27;;;20.70;64.90;;;;;;5012351;28;20200;-56
2023/04/14 05:07:46;;;;;;;1.58;1.08;;;20.70;64.90;;;;;;5008019;28;20220;-58
2023/04/14 05:10:12;;;;;;;1.80;1.40;;;20.70;64.90;;;;;;5017759;28;20546;-56
2023/04/14 05:12:39;;;;;;;1.27;1.02;;;20.70;64.90;;;;;;5012535;28;20457;-53
2023/04/14 05:15:08;;;;;;;1.10;0.98;;;20.70;64.90;;;;;;5014915;28;20671;-56
2023/04/14 05:17:35;;;;;;;2.20;1.20;;;20.70;64.90;;;;;;5018174;28;20240;-58
2023/04/14 05:20:03;;;;;;;1.25;1.00;;;20.70;65.80;;;;;;5010608;28;20550;-58
2023/04/14 05:22:32;;;;;;;1.48;1.00;;;20.70;64.90;;;;;;5013845;28;20220;-55
2023/04/14 05:24:58;;;;;;;1.35;1.00;;;20.80;65.00;;;;;;5012187;28;20205;-55
2023/04/14 05:27:25;;;;;;;2.08;0.98;;;20.80;65.00;;;;;;5011069;28;20197;-54
2023/04/14 05:29:52;;;;;;;1.85;1.27;;;20.80;65.00;;;;;;5017149;28;20196;-59
2023/04/14 05:32:20;;;;;;;1.20;1.00;;;20.80;65.10;;;;;;5009735;28;20604;-58
2023/04/14 05:34:46;;;;;;;1.48;1.05;;;20.80;65.10;;;;;;5015835;28;20307;-56
2023/04/14 05:37:13;;;;;;;1.42;1.00;;;20.80;65.10;;;;;;5004948;28;20197;-53
2023/04/14 05:39:41;;;;;;;2.72;1.45;;;20.80;65.00;;;;;;5003982;28;20271;-60
2023/04/14 05:42:08;;;;;;;1.65;1.13;;;20.90;65.10;;;;;;5008700;28;20204;-58
2023/04/14 05:44:35;;;;;;;1.40;1.00;;;20.80;65.00;;;;;;5013213;28;20668;-54
2023/04/14 05:47:01;;;;;;;1.50;1.20;;;20.80;65.00;;;;;;5011720;28;20223;-56
2023/04/14 05:49:29;;;;;;;1.40;1.10;;;20.90;65.00;;;;;;5008830;28;20201;-55
2023/04/14 05:51:56;;;;;;;1.30;1.10;;;20.80;64.90;;;;;;5009491;28;20428;-56
2023/04/14 05:54:22;;;;;;;1.67;0.85;;;20.90;65.90;;;;;;5014317;28;20467;-60
2023/04/14 05:56:50;;;;;;;1.20;1.08;;;20.80;64.90;;;;;;5006527;28;20197;-57
2023/04/14 05:59:17;;;;;;;1.70;0.98;;;20.80;64.90;;;;;;5001654;28;20214;-52
2023/04/14 06:01:44;;;;;;;1.55;1.38;;;20.80;65.00;;;;;;5010542;28;20200;-52
2023/04/14 06:04:10;;;;;;;1.10;0.90;;;20.80;65.00;;;;;;5020960;28;20192;-59
2023/04/14 06:06:37;;;;;;;1.50;0.90;;;20.80;65.00;;;;;;5019726;28;20196;-52
2023/04/14 06:09:04;;;;;;;1.20;1.00;;;20.90;65.10;;;;;;5024752;28;20201;-56
2023/04/14 06:11:30;;;;;;;2.55;1.63;;;20.90;65.10;;;;;;5013468;28;20200;-54
2023/04/14 06:14:00;;;;;;;1.08;0.90;;;20.90;65.10;;;;;;5017230;28;20199;-53
2023/04/14 06:16:27;;;;;;;1.33;0.80;;;20.90;65.10;;;;;;5012891;28;20197;-57
2023/04/14 06:18:53;;;;;;;1.33;1.17;;;21.00;65.10;;;;;;5023707;28;20196;-61
2023/04/14 06:21:20;;;;;;;1.38;1.27;;;21.00;65.10;;;;;;5005271;28;20196;-58
2023/04/14 06:23:47;;;;;;;1.30;1.20;;;21.00;65.10;;;;;;5002894;28;20259;-56
2023/04/14 06:26:14;;;;;;;1.33;1.10;;;21.00;65.10;;;;;;5012713;28;20205;-53
2023/04/14 06:28:40;;;;;;;1.20;1.05;;;21.10;65.30;;;;;;5010912;28;20219;-52
2023/04/14 06:31:09;;;;;;;1.27;1.00;;;21.10;65.10;;;;;;5017395;28;20247;-58
2023/04/14 06:33:35;;;;;;;1.40;1.10;;;21.10;65.10;;;;;;5012430;28;20956;-55
2023/04/14 06:36:02;;;;;;;1.40;1.00;;;21.10;65.20;;;;;;5009445;28;21062;-56
2023/04/14 06:38:29;;;;;;;1.30;0.90;;;21.20;65.20;;;;;;5014778;28;20629;-55
2023/04/14 06:40:55;;;;;;;1.23;0.90;;;21.20;65.20;;;;;;5010363;28;20389;-55
2023/04/14 06:43:22;;;;;;;1.25;0.95;;;21.20;65.20;;;;;;5018985;28;20858;-53
2023/04/14 06:45:49;;;;;;;1.50;1.20;;;21.20;65.20;;;;;;5009126;28;20199;-58
2023/04/14 06:48:17;;;;;;;1.37;1.00;;;21.20;65.10;;;;;;5016169;28;20549;-59
2023/04/14 06:50:51;;;;;;;2.00;1.17;;;21.20;65.10;;;;;;5017515;28;20459;-54
2023/04/14 06:53:18;;;;;;;1.00;0.85;;;21.30;65.20;;;;;;5016611;28;20254;-52
2023/04/14 06:55:44;;;;;;;1.42;1.10;;;21.30;65.20;;;;;;5010342;28;20219;-56
2023/04/14 06:58:11;;;;;;;1.20;1.10;;;21.30;65.20;;;;;;5020482;28;20250;-56
2023/04/14 07:00:38;;;;;;;1.00;0.90;;;21.30;65.20;;;;;;5022111;28;20250;-53
2023/04/14 07:03:04;;;;;;;1.42;1.15;;;21.30;65.20;;;;;;5020785;28;20239;-54
2023/04/14 07:05:32;;;;;;;4.20;0.90;;;21.30;65.20;;;;;;5012090;28;20212;-54
2023/04/14 07:07:59;;;;;;;3.53;1.10;;;21.30;65.60;;;;;;5025029;28;20455;-49
2023/04/14 07:10:26;;;;;;;1.95;1.38;;;21.30;65.60;;;;;;5015438;28;20222;-52
2023/04/14 07:12:52;;;;;;;1.25;0.90;;;21.30;65.70;;;;;;5012763;28;20201;-52
2023/04/14 07:15:19;;;;;;;3.57;1.10;;;21.30;65.80;;;;;;5006710;28;20762;-54
2023/04/14 07:17:46;;;;;;;2.65;1.20;;;21.30;65.90;;;;;;5011948;28;20465;-52
2023/04/14 07:20:13;;;;;;;1.10;0.90;;;21.40;66.30;;;;;;5016854;28;20192;-59
2023/04/14 07:22:41;;;;;;;1.48;1.10;;;21.30;66.00;;;;;;5002710;28;21450;-58
2023/04/14 07:25:08;;;;;;;1.10;1.00;;;21.40;66.30;;;;;;5005719;28;20224;-55
2023/04/14 07:27:35;;;;;;;2.80;1.15;;;21.40;66.00;;;;;;5013123;28;20467;-54
2023/04/14 07:30:02;;;;;;;1.35;1.13;;;21.40;66.20;;;;;;5013027;28;23101;-55
2023/04/14 07:32:29;;;;;;;6.43;1.50;;;21.40;66.90;;;;;;5014679;28;20237;-55
2023/04/14 07:34:57;;;;;;;3.33;1.27;;;21.40;66.10;;;;;;5018225;28;20239;-53
2023/04/14 07:37:24;;;;;;;4.82;1.33;;;21.40;66.10;;;;;;5013118;28;20196;-57
2023/04/14 07:39:52;;;;;;;3.22;1.27;;;21.40;66.10;;;;;;5014968;28;20778;-56
2023/04/14 07:42:19;;;;;;;1.60;1.10;;;21.50;66.20;;;;;;5015416;28;20281;-57
2023/04/14 07:44:46;;;;;;;2.20;1.00;;;21.50;66.10;;;;;;5015866;28;20491;-57
2023/04/14 07:47:12;;;;;;;1.93;1.50;;;21.50;66.10;;;;;;5013415;28;20324;-58
2023/04/14 07:49:39;;;;;;;4.32;1.17;;;21.50;66.10;;;;;;5022580;28;20467;-55
2023/04/14 07:52:06;;;;;;;1.20;1.00;;;21.50;66.10;;;;;;5017882;28;20679;-55
2023/04/14 07:54:32;;;;;;;2.87;1.00;;;21.50;66.10;;;;;;5002254;28;20943;-54
2023/04/14 07:57:01;;;;;;;1.60;1.08;;;21.50;66.00;;;;;;5020219;28;20569;-58
2023/04/14 07:59:28;;;;;;;1.60;1.13;;;21.50;66.00;;;;;;5006354;28;20197;-58
2023/04/14 08:01:54;;;;;;;3.63;1.30;;;21.50;66.00;;;;;;5012117;28;20200;-55
2023/04/14 08:04:21;;;;;;;4.23;1.20;;;21.50;66.00;;;;;;5013055;28;20490;-52
2023/04/14 08:06:48;;;;;;;1.10;0.97;;;21.50;65.90;;;;;;5014205;28;21233;-57
2023/04/14 08:09:16;;;;;;;2.17;1.37;;;21.50;65.80;;;;;;5012558;28;20460;-54
2023/04/14 08:11:42;;;;;;;3.17;0.90;;;21.60;65.90;;;;;;5016002;28;20459;-57
2023/04/14 08:14:10;;;;;;;1.40;1.03;;;21.60;65.90;;;;;;5020149;28;20450;-54
2023/04/14 08:16:37;;;;;;;1.30;1.00;;;21.60;65.80;;;;;;5015905;28;20875;-57
2023/04/14 08:19:04;;;;;;;2.97;1.47;;;21.60;65.90;;;;;;5020564;28;20551;-58
2023/04/14 08:21:31;;;;;;;1.50;0.93;;;21.60;65.90;;;;;;5016311;28;20546;-57
2023/04/14 08:23:58;;;;;;;1.77;1.67;;;21.60;66.10;;;;;;5017348;28;20905;-58
2023/04/14 08:26:26;;;;;;;2.40;1.20;;;21.70;66.40;;;;;;5009339;28;20468;-57
2023/04/14 08:28:53;;;;;;;7.03;1.67;;;21.60;66.10;;;;;;5009127;28;20197;-57
2023/04/14 08:31:23;;;;;;;3.30;1.53;;;21.60;66.10;;;;;;5017035;28;20462;-58
2023/04/14 08:33:49;;;;;;;1.73;1.25;;;21.60;66.10;;;;;;5011605;28;20468;-57
2023/04/14 08:36:16;;;;;;;2.20;1.33;;;21.70;66.20;;;;;;5018989;28;20243;-58
2023/04/14 08:38:43;;;;;;;4.37;1.63;;;21.70;67.00;;;;;;5022655;28;20200;-56
2023/04/14 08:41:13;;;;;;;1.50;1.27;;;21.70;66.20;;;;;;5015225;28;20463;-58
2023/04/14 08:43:40;;;;;;;2.33;0.90;;;21.70;66.10;;;;;;5017638;28;20556;-60
2023/04/14 08:46:09;;;;;;;1.50;1.00;;;21.70;66.10;;;;;;5016627;28;20438;-59
2023/04/14 08:48:38;;;;;;;2.20;0.80;;;21.70;66.00;;;;;;5020391;28;20542;-57
2023/04/14 08:51:10;;;;;;;2.67;1.10;;;21.70;66.10;;;;;;5013911;28;20571;-56
2023/04/14 08:53:41;;;;;;;1.50;1.00;;;21.70;66.10;;;;;;5019733;28;20510;-57
2023/04/14 08:56:11;;;;;;;2.53;1.20;;;21.70;66.00;;;;;;5026508;28;20256;-57
2023/04/14 08:58:38;;;;;;;1.35;1.08;;;21.70;66.00;;;;;;5015105;28;20200;-57
2023/04/14 09:01:06;;;;;;;1.60;1.30;;;21.70;66.00;;;;;;5021523;28;20204;-59
2023/04/14 09:03:34;;;;;;;2.47;1.20;;;21.70;65.90;;;;;;5016877;28;20476;-57
2023/04/14 09:06:02;;;;;;;2.90;1.40;;;21.70;66.00;;;;;;5015792;28;20512;-58
2023/04/14 09:08:32;;;;;;;1.80;1.30;;;21.70;65.90;;;;;;5023621;28;20463;-56
2023/04/14 09:11:00;;;;;;;4.60;1.38;;;21.70;65.90;;;;;;5022985;28;20462;-58
2023/04/14 09:13:28;;;;;;;1.53;1.20;;;21.70;65.90;;;;;;5013094;28;20216;-59
2023/04/14 09:15:55;;;;;;;3.00;1.30;;;21.70;65.90;;;;;;5010501;28;20538;-59
2023/04/14 09:18:22;;;;;;;2.73;1.03;;;21.70;65.80;;;;;;5019556;28;20486;-57
2023/04/14 09:20:48;;;;;;;3.00;1.43;;;21.70;65.80;;;;;;5015801;28;20463;-55
2023/04/14 09:23:16;;;;;;;2.10;1.33;;;21.70;65.80;;;;;;5008634;28;20475;-59
2023/04/14 09:25:43;;;;;;;2.43;1.23;;;21.70;65.80;;;;;;5010006;28;20494;-58
2023/04/14 09:28:11;;;;;;;1.13;1.00;;;21.70;65.80;;;;;;5012715;28;20448;-58
2023/04/14 09:30:38;;;;;;;1.63;1.15;;;21.70;65.80;;;;;;5006589;28;20464;-59
2023/04/14 09:33:05;;;;;;;1.20;1.03;;;21.70;65.70;;;;;;5019768;28;20197;-58
2023/04/14 09:35:45;;;;;;;3.35;1.23;;;21.70;65.70;;;;;;5019045;28;20481;-57
2023/04/14 09:38:12;;;;;;;1.97;1.60;;;21.70;65.70;;;;;;5016562;28;20286;-56
2023/04/14 09:40:42;;;;;;;1.40;1.00;;;21.70;65.70;;;;;;5017143;28;20477;-57
2023/04/14 09:43:22;;;;;;;2.55;1.50;;;21.80;65.70;;;;;;5015798;28;20456;-58
2023/04/14 09:45:49;;;;;;;1.30;1.20;;;21.70;65.70;;;;;;5018212;28;20303;-57
2023/04/14 09:48:17;;;;;;;1.33;1.10;;;21.70;65.60;;;;;;5018307;28;20452;-58
2023/04/14 09:51:02;;;;;;;2.13;1.90;;;21.80;65.80;;;;;;5005580;28;20570;-56
2023/04/14 09:53:30;;;;;;;2.30;1.13;;;21.70;65.60;;;;;;5015079;28;20235;-56
2023/04/14 09:56:01;;;;;;;1.10;1.00;;;21.70;65.60;;;;;;5023177;28;20485;-58
2023/04/14 09:58:29;;;;;;;1.50;1.30;;;21.80;65.60;;;;;;5004469;28;20486;-56
2023/04/14 10:00:58;;;;;;;2.10;1.37;;;21.70;65.60;;;;;;5008941;28;20448;-57
2023/04/14 10:03:35;;;;;;;1.45;1.13;;;21.80;65.70;;;;;;5019994;28;20538;-57
2023/04/14 10:06:03;;;;;;;1.67;1.42;;;21.70;66.40;;;;;;5011739;28;20204;-57
2023/04/14 10:08:38;;;;;;;1.27;1.10;;;21.70;65.50;;;;;;5015711;28;20201;-57
2023/04/14 10:11:17;;;;;;;1.35;1.25;;;21.70;65.50;;;;;;5020281;28;20208;-57
2023/04/14 10:13:44;;;;;;;1.30;1.00;;;21.80;65.60;;;;;;5007636;28;20213;-59
2023/04/14 10:16:11;;;;;;;1.25;0.90;;;21.70;65.50;;;;;;5014501;28;20223;-60
2023/04/14 10:18:38;;;;;;;1.40;1.00;;;21.70;65.50;;;;;;5013418;28;20255;-58
2023/04/14 10:21:06;;;;;;;1.80;0.90;;;21.70;65.50;;;;;;5007145;28;20467;-59
2023/04/14 10:23:33;;;;;;;2.30;1.17;;;21.80;65.60;;;;;;5017518;28;20486;-55
2023/04/14 10:26:01;;;;;;;1.65;1.15;;;21.70;65.40;;;;;;5015966;28;20215;-54
2023/04/14 10:28:30;;;;;;;2.27;1.30;;;21.70;65.50;;;;;;5009753;28;20250;-56
2023/04/14 10:30:59;;;;;;;1.60;1.00;;;21.70;65.50;;;;;;5008432;28;20452;-57
2023/04/14 10:33:26;;;;;;;1.50;1.30;;;21.70;65.50;;;;;;5009529;28;20207;-56
2023/04/14 10:35:58;;;;;;;1.55;1.30;;;21.70;65.40;;;;;;5011636;28;20232;-57
2023/04/14 10:38:38;;;;;;;2.55;1.40;;;21.70;65.40;;;;;;5017737;28;20255;-57
2023/04/14 10:41:06;;;;;;;1.20;1.10;;;21.70;65.40;;;;;;5013484;28;20323;-57
2023/04/14 10:43:35;;;;;;;1.80;1.37;;;21.70;66.20;;;;;;5000692;28;20957;-58
2023/04/14 10:46:03;;;;;;;1.45;1.20;;;21.70;65.40;;;;;;5013646;28;20459;-58
2023/04/14 10:48:34;;;;;;;3.28;1.38;;;21.70;65.40;;;;;;5018033;28;20204;-55
2023/04/14 10:51:02;;;;;;;1.40;1.25;;;21.70;65.30;;;;;;5021297;28;20204;-57
2023/04/14 10:53:36;;;;;;;1.40;1.20;;;21.70;65.40;;;;;;5010335;28;20206;-57
2023/04/14 10:56:04;;;;;;;1.17;0.90;;;21.70;65.30;;;;;;5024707;28;20569;-56
2023/04/14 10:58:36;;;;;;;1.17;1.08;;;21.70;65.30;;;;;;5015337;28;20602;-57
2023/04/14 11:01:22;;;;;;;1.42;0.90;;;21.70;65.30;;;;;;5018496;28;20331;-57
2023/04/14 11:03:48;;;;;;;1.10;1.00;;;21.70;65.30;;;;;;5014759;28;20288;-58
2023/04/14 11:06:54;;;;;;;1.50;1.33;;;21.60;65.20;;;;;;5014415;28;20208;-58
2023/04/14 11:09:32;;;;;;;5.32;1.35;;;21.60;65.30;;;;;;5009678;28;20205;-59
2023/04/14 11:12:03;;;;;;;1.42;1.23;;;21.70;65.40;;;;;;5009077;28;20247;-57
2023/04/14 11:14:32;;;;;;;1.20;0.95;;;21.60;65.30;;;;;;5001959;28;20201;-58
2023/04/14 11:17:00;;;;;;;2.00;1.60;;;21.60;65.20;;;;;;5005776;28;20232;-59
2023/04/14 11:19:27;;;;;;;6.55;1.60;;;21.60;65.00;;;;;;5009556;28;20193;-57
2023/04/14 11:21:56;;;;;;;1.95;1.35;;;21.50;64.50;;;;;;5012636;28;20344;-55
2023/04/14 11:24:23;;;;;;;1.60;1.10;;;21.50;64.60;;;;;;5013035;28;20577;-57
2023/04/14 11:26:52;;;;;;;3.40;1.27;;;21.50;64.50;;;;;;5003355;28;22224;-59
2023/04/14 11:29:19;;;;;;;2.95;1.00;;;21.60;64.30;;;;;;5010985;28;20197;-63
2023/04/14 11:31:46;;;;;;;1.70;1.13;;;21.60;64.20;;;;;;5015529;28;20276;-63
2023/04/14 11:34:13;;;;;;;2.40;1.20;;;21.60;65.40;;;;;;5026720;28;20759;-59
2023/04/14 11:36:39;;;;;;;8.88;1.50;;;21.60;64.60;;;;;;5013188;28;20219;-59
2023/04/14 11:39:07;;;;;;;2.33;1.53;;;21.60;64.50;;;;;;5016117;28;20192;-59
2023/04/14 11:41:34;;;;;;;4.80;1.40;;;21.60;65.10;;;;;;5013434;28;20517;-59
2023/04/14 11:44:01;;;;;;;2.00;1.20;;;21.70;65.30;;;;;;5009562;28;20271;-59
2023/04/14 11:46:28;;;;;;;3.58;1.35;;;21.70;65.50;;;;;;5020706;28;20611;-57
2023/04/14 11:48:56;;;;;;;1.60;1.25;;;21.80;65.60;;;;;;5015553;28;20205;-61
2023/04/14 11:51:29;;;;;;;2.83;1.23;;;21.80;65.90;;;;;;5014694;28;20200;-58
2023/04/14 11:53:57;;;;;;;1.40;0.93;;;21.80;66.00;;;;;;5006378;28;20456;-61
2023/04/14 11:56:26;;;;;;;1.52;1.10;;;21.90;66.20;;;;;;5006940;28;20483;-61
2023/04/14 11:58:59;;;;;;;2.80;1.30;;;21.90;66.20;;;;;;5019668;28;20275;-60
2023/04/14 12:01:26;;;;;;;2.20;1.30;;;21.90;66.30;;;;;;5019182;28;20450;-54
2023/04/14 12:03:53;;;;;;;1.50;1.37;;;21.90;66.40;;;;;;5021344;28;20971;-58
2023/04/14 12:06:19;;;;;;;6.93;1.20;;;21.90;66.40;;;;;;5017530;28;20528;-58
2023/04/14 12:08:51;;;;;;;2.27;1.37;;;22.00;66.50;;;;;;5027375;28;20471;-56
2023/04/14 12:11:18;;;;;;;3.20;1.35;;;22.00;66.60;;;;;;5015576;28;20467;-57
2023/04/14 12:13:47;;;;;;;1.30;1.10;;;22.00;66.50;;;;;;5007955;28;20204;-58
2023/04/14 12:16:15;;;;;;;1.30;0.90;;;22.00;66.50;;;;;;5008739;28;20938;-57
2023/04/14 12:18:42;;;;;;;2.93;1.30;;;22.00;66.60;;;;;;5013092;28;21210;-60
2023/04/14 12:21:09;;;;;;;1.30;1.03;;;22.00;66.50;;;;;;5019350;28;20455;-60
2023/04/14 12:23:37;;;;;;;1.30;0.90;;;22.10;66.70;;;;;;5014465;28;20471;-60
2023/04/14 12:26:08;;;;;;;2.53;1.20;;;22.10;66.70;;;;;;5007571;28;21040;-61
2023/04/14 12:28:37;;;;;;;1.67;1.20;;;22.10;66.60;;;;;;5006241;28;20485;-57
2023/04/14 12:31:06;;;;;;;1.50;0.90;;;22.10;66.60;;;;;;5010149;28;20467;-61
2023/04/14 12:33:33;;;;;;;2.67;1.60;;;22.10;66.50;;;;;;5014007;28;20498;-59
2023/04/14 12:36:04;;;;;;;2.20;0.97;;;22.10;66.50;;;;;;5009816;28;20550;-59
2023/04/14 12:38:32;;;;;;;1.17;0.93;;;22.10;66.50;;;;;;5014100;28;20474;-60
2023/04/14 12:40:59;;;;;;;1.60;0.93;;;22.20;66.70;;;;;;5024184;28;20443;-59
2023/04/14 12:43:30;;;;;;;1.97;1.27;;;22.20;66.70;;;;;;5007623;28;21009;-55
2023/04/14 12:45:58;;;;;;;1.80;1.20;;;22.10;66.40;;;;;;5012405;28;20463;-55
2023/04/14 12:48:42;;;;;;;2.47;0.83;;;22.10;66.30;;;;;;5021665;28;20818;-59
2023/04/14 12:51:10;;;;;;;1.33;1.00;;;22.10;66.20;;;;;;5016721;28;20973;-58
2023/04/14 12:53:36;;;;;;;3.03;1.40;;;22.10;65.80;;;;;;5017413;28;20469;-56
2023/04/14 12:56:05;;;;;;;2.03;1.10;;;22.10;65.70;;;;;;5018835;28;20471;-57